sensor_id;sensor_type;location;lat;lon;timestamp;P1;durP1;ratioP1;P2;durP2;ratioP2
5831;SDS011;50943;51.448;7.646;2022-08-30T00:00:40;10.93;;;4.20;;
5831;SDS011;50943;51.448;7.646;2022-08-30T00:03:24;6.90;;;3.90;;
5831;SDS011;50943;51.448;7.646;2022-08-30T00:05:51;7.53;;;3.20;;
5831;SDS011;50943;51.448;7.646;2022-08-30T00:08:18;6.80;;;3.47;;
5831;SDS011;50943;51.448;7.646;2022-08-30T00:10:45;6.73;;;3.30;;
5831;SDS011;50943;51.448;7.646;2022-08-30T00:13:11;11.73;;;3.50;;
5831;SDS011;50943;51.448;7.646;2022-08-30T00:15:40;5.80;;;3.03;;
5831;SDS011;50943;51.448;7.646;2022-08-30T00:18:06;5.60;;;3.77;;
5831;SDS011;50943;51.448;7.646;2022-08-30T00:20:33;7.93;;;3.67;;
5831;SDS011;50943;51.448;7.646;2022-08-30T00:23:00;7.23;;;3.60;;
5831;SDS011;50943;51.448;7.646;2022-08-30T00:25:27;8.40;;;4.53;;
5831;SDS011;50943;51.448;7.646;2022-08-30T00:27:53;7.33;;;4.10;;
5831;SDS011;50943;51.448;7.646;2022-08-30T00:30:20;7.70;;;3.77;;
5831;SDS011;50943;51.448;7.646;2022-08-30T00:32:47;9.13;;;3.30;;
5831;SDS011;50943;51.448;7.646;2022-08-30T00:35:15;8.30;;;3.70;;
5831;SDS011;50943;51.448;7.646;2022-08-30T00:37:42;8.50;;;4.07;;
5831;SDS011;50943;51.448;7.646;2022-08-30T00:40:09;5.77;;;3.50;;
5831;SDS011;50943;51.448;7.646;2022-08-30T00:42:36;8.37;;;3.80;;
5831;SDS011;50943;51.448;7.646;2022-08-30T00:45:09;8.00;;;4.30;;
5831;SDS011;50943;51.448;7.646;2022-08-30T00:47:35;11.03;;;4.20;;
5831;SDS011;50943;51.448;7.646;2022-08-30T00:50:04;7.13;;;4.17;;
5831;SDS011;50943;51.448;7.646;2022-08-30T00:52:32;6.40;;;4.00;;
5831;SDS011;50943;51.448;7.646;2022-08-30T00:54:59;9.90;;;4.10;;
5831;SDS011;50943;51.448;7.646;2022-08-30T00:57:26;8.57;;;4.47;;
5831;SDS011;50943;51.448;7.646;2022-08-30T00:59:53;10.30;;;4.23;;
5831;SDS011;50943;51.448;7.646;2022-08-30T01:02:21;12.83;;;4.30;;
5831;SDS011;50943;51.448;7.646;2022-08-30T01:04:48;10.03;;;4.40;;
5831;SDS011;50943;51.448;7.646;2022-08-30T01:07:17;9.60;;;4.27;;
5831;SDS011;50943;51.448;7.646;2022-08-30T01:09:43;7.60;;;3.97;;
5831;SDS011;50943;51.448;7.646;2022-08-30T01:12:10;7.90;;;4.60;;
5831;SDS011;50943;51.448;7.646;2022-08-30T01:14:36;9.80;;;4.83;;
5831;SDS011;50943;51.448;7.646;2022-08-30T01:17:03;8.27;;;4.10;;
5831;SDS011;50943;51.448;7.646;2022-08-30T01:19:31;4.77;;;3.60;;
5831;SDS011;50943;51.448;7.646;2022-08-30T01:22:00;9.57;;;4.20;;
5831;SDS011;50943;51.448;7.646;2022-08-30T01:24:31;9.70;;;4.63;;
5831;SDS011;50943;51.448;7.646;2022-08-30T01:26:57;11.40;;;4.63;;
5831;SDS011;50943;51.448;7.646;2022-08-30T01:29:24;6.33;;;4.47;;
5831;SDS011;50943;51.448;7.646;2022-08-30T01:31:51;9.60;;;4.53;;
5831;SDS011;50943;51.448;7.646;2022-08-30T01:34:17;9.40;;;4.10;;
5831;SDS011;50943;51.448;7.646;2022-08-30T01:36:44;10.03;;;4.70;;
5831;SDS011;50943;51.448;7.646;2022-08-30T01:39:11;9.33;;;4.67;;
5831;SDS011;50943;51.448;7.646;2022-08-30T01:41:40;8.07;;;4.70;;
5831;SDS011;50943;51.448;7.646;2022-08-30T01:44:08;9.47;;;4.43;;
5831;SDS011;50943;51.448;7.646;2022-08-30T01:46:36;11.30;;;5.50;;
5831;SDS011;50943;51.448;7.646;2022-08-30T01:49:04;9.97;;;5.17;;
5831;SDS011;50943;51.448;7.646;2022-08-30T01:51:32;12.63;;;5.80;;
5831;SDS011;50943;51.448;7.646;2022-08-30T01:53:59;11.80;;;5.57;;
5831;SDS011;50943;51.448;7.646;2022-08-30T01:56:26;8.10;;;5.30;;
5831;SDS011;50943;51.448;7.646;2022-08-30T01:58:54;14.43;;;5.63;;
5831;SDS011;50943;51.448;7.646;2022-08-30T02:01:22;10.77;;;5.00;;
5831;SDS011;50943;51.448;7.646;2022-08-30T02:03:50;10.43;;;5.80;;
5831;SDS011;50943;51.448;7.646;2022-08-30T02:06:18;12.67;;;4.70;;
5831;SDS011;50943;51.448;7.646;2022-08-30T02:08:45;8.10;;;5.27;;
5831;SDS011;50943;51.448;7.646;2022-08-30T02:11:11;16.50;;;5.33;;
5831;SDS011;50943;51.448;7.646;2022-08-30T02:13:39;7.17;;;5.20;;
5831;SDS011;50943;51.448;7.646;2022-08-30T02:16:08;10.07;;;5.03;;
5831;SDS011;50943;51.448;7.646;2022-08-30T02:18:35;10.00;;;4.63;;
5831;SDS011;50943;51.448;7.646;2022-08-30T02:21:02;11.73;;;5.67;;
5831;SDS011;50943;51.448;7.646;2022-08-30T02:23:28;8.53;;;5.20;;
5831;SDS011;50943;51.448;7.646;2022-08-30T02:25:55;15.80;;;5.23;;
5831;SDS011;50943;51.448;7.646;2022-08-30T02:28:22;9.40;;;5.20;;
5831;SDS011;50943;51.448;7.646;2022-08-30T02:30:49;11.37;;;4.90;;
5831;SDS011;50943;51.448;7.646;2022-08-30T02:33:17;13.20;;;5.50;;
5831;SDS011;50943;51.448;7.646;2022-08-30T02:35:44;14.00;;;5.90;;
5831;SDS011;50943;51.448;7.646;2022-08-30T02:38:10;6.53;;;4.90;;
5831;SDS011;50943;51.448;7.646;2022-08-30T02:40:36;9.37;;;5.13;;
5831;SDS011;50943;51.448;7.646;2022-08-30T02:43:03;12.20;;;5.43;;
5831;SDS011;50943;51.448;7.646;2022-08-30T02:45:29;15.23;;;5.90;;
5831;SDS011;50943;51.448;7.646;2022-08-30T02:47:56;10.70;;;5.97;;
5831;SDS011;50943;51.448;7.646;2022-08-30T02:50:24;6.10;;;4.80;;
5831;SDS011;50943;51.448;7.646;2022-08-30T02:52:50;16.27;;;6.20;;
5831;SDS011;50943;51.448;7.646;2022-08-30T02:55:17;14.57;;;5.80;;
5831;SDS011;50943;51.448;7.646;2022-08-30T02:57:43;10.63;;;5.70;;
5831;SDS011;50943;51.448;7.646;2022-08-30T03:00:12;8.63;;;5.43;;
5831;SDS011;50943;51.448;7.646;2022-08-30T03:02:39;10.00;;;6.20;;
5831;SDS011;50943;51.448;7.646;2022-08-30T03:05:06;12.43;;;6.40;;
5831;SDS011;50943;51.448;7.646;2022-08-30T03:07:34;10.53;;;6.43;;
5831;SDS011;50943;51.448;7.646;2022-08-30T03:10:00;9.80;;;5.90;;
5831;SDS011;50943;51.448;7.646;2022-08-30T03:12:27;10.03;;;5.90;;
5831;SDS011;50943;51.448;7.646;2022-08-30T03:14:53;9.77;;;6.80;;
5831;SDS011;50943;51.448;7.646;2022-08-30T03:17:20;13.20;;;5.87;;
5831;SDS011;50943;51.448;7.646;2022-08-30T03:19:47;9.67;;;5.57;;
5831;SDS011;50943;51.448;7.646;2022-08-30T03:22:13;13.23;;;6.03;;
5831;SDS011;50943;51.448;7.646;2022-08-30T03:24:41;10.60;;;6.83;;
5831;SDS011;50943;51.448;7.646;2022-08-30T03:27:07;11.50;;;6.60;;
5831;SDS011;50943;51.448;7.646;2022-08-30T03:29:34;10.97;;;5.90;;
5831;SDS011;50943;51.448;7.646;2022-08-30T03:32:00;10.50;;;7.30;;
5831;SDS011;50943;51.448;7.646;2022-08-30T03:34:27;12.07;;;6.90;;
5831;SDS011;50943;51.448;7.646;2022-08-30T03:36:54;9.93;;;6.60;;
5831;SDS011;50943;51.448;7.646;2022-08-30T03:39:21;12.70;;;7.60;;
5831;SDS011;50943;51.448;7.646;2022-08-30T03:41:49;12.93;;;7.10;;
5831;SDS011;50943;51.448;7.646;2022-08-30T03:44:15;11.37;;;6.70;;
5831;SDS011;50943;51.448;7.646;2022-08-30T03:46:42;17.37;;;7.40;;
5831;SDS011;50943;51.448;7.646;2022-08-30T03:49:09;10.20;;;7.00;;
5831;SDS011;50943;51.448;7.646;2022-08-30T03:51:35;12.37;;;7.20;;
5831;SDS011;50943;51.448;7.646;2022-08-30T03:54:01;15.40;;;7.73;;
5831;SDS011;50943;51.448;7.646;2022-08-30T03:56:28;10.47;;;6.90;;
5831;SDS011;50943;51.448;7.646;2022-08-30T03:58:56;14.07;;;7.37;;
5831;SDS011;50943;51.448;7.646;2022-08-30T04:01:22;13.73;;;7.37;;
5831;SDS011;50943;51.448;7.646;2022-08-30T04:03:49;9.40;;;7.03;;
5831;SDS011;50943;51.448;7.646;2022-08-30T04:06:15;15.67;;;6.90;;
5831;SDS011;50943;51.448;7.646;2022-08-30T04:08:42;15.30;;;6.63;;
5831;SDS011;50943;51.448;7.646;2022-08-30T04:11:10;10.63;;;6.70;;
5831;SDS011;50943;51.448;7.646;2022-08-30T04:13:36;11.73;;;7.40;;
5831;SDS011;50943;51.448;7.646;2022-08-30T04:16:04;15.83;;;8.37;;
5831;SDS011;50943;51.448;7.646;2022-08-30T04:18:31;13.00;;;6.87;;
5831;SDS011;50943;51.448;7.646;2022-08-30T04:21:00;13.73;;;7.00;;
5831;SDS011;50943;51.448;7.646;2022-08-30T04:23:26;17.80;;;7.43;;
5831;SDS011;50943;51.448;7.646;2022-08-30T04:25:53;16.63;;;8.17;;
5831;SDS011;50943;51.448;7.646;2022-08-30T04:28:20;18.07;;;9.00;;
5831;SDS011;50943;51.448;7.646;2022-08-30T04:30:46;13.30;;;8.40;;
5831;SDS011;50943;51.448;7.646;2022-08-30T04:33:14;12.67;;;7.23;;
5831;SDS011;50943;51.448;7.646;2022-08-30T04:35:41;14.47;;;7.17;;
5831;SDS011;50943;51.448;7.646;2022-08-30T04:38:08;13.63;;;7.80;;
5831;SDS011;50943;51.448;7.646;2022-08-30T04:40:35;14.10;;;8.40;;
5831;SDS011;50943;51.448;7.646;2022-08-30T04:43:01;10.00;;;7.30;;
5831;SDS011;50943;51.448;7.646;2022-08-30T04:45:27;14.37;;;7.60;;
5831;SDS011;50943;51.448;7.646;2022-08-30T04:47:54;15.23;;;8.50;;
5831;SDS011;50943;51.448;7.646;2022-08-30T04:50:21;12.63;;;7.40;;
5831;SDS011;50943;51.448;7.646;2022-08-30T04:52:48;12.67;;;6.97;;
5831;SDS011;50943;51.448;7.646;2022-08-30T04:55:14;13.40;;;7.47;;
5831;SDS011;50943;51.448;7.646;2022-08-30T04:57:41;14.30;;;7.50;;
5831;SDS011;50943;51.448;7.646;2022-08-30T05:00:08;13.50;;;7.30;;
5831;SDS011;50943;51.448;7.646;2022-08-30T05:02:36;12.97;;;7.00;;
5831;SDS011;50943;51.448;7.646;2022-08-30T05:05:02;13.13;;;7.10;;
5831;SDS011;50943;51.448;7.646;2022-08-30T05:07:48;15.10;;;6.30;;
5831;SDS011;50943;51.448;7.646;2022-08-30T05:10:15;12.10;;;7.07;;
5831;SDS011;50943;51.448;7.646;2022-08-30T05:12:41;20.60;;;8.20;;
5831;SDS011;50943;51.448;7.646;2022-08-30T05:15:08;11.63;;;8.57;;
5831;SDS011;50943;51.448;7.646;2022-08-30T05:17:35;19.63;;;6.80;;
5831;SDS011;50943;51.448;7.646;2022-08-30T05:20:02;11.70;;;7.00;;
5831;SDS011;50943;51.448;7.646;2022-08-30T05:22:29;13.97;;;6.77;;
5831;SDS011;50943;51.448;7.646;2022-08-30T05:24:57;9.90;;;7.13;;
5831;SDS011;50943;51.448;7.646;2022-08-30T05:27:24;16.43;;;6.70;;
5831;SDS011;50943;51.448;7.646;2022-08-30T05:29:50;13.43;;;6.43;;
5831;SDS011;50943;51.448;7.646;2022-08-30T05:32:16;12.70;;;7.10;;
5831;SDS011;50943;51.448;7.646;2022-08-30T05:34:43;13.97;;;6.87;;
5831;SDS011;50943;51.448;7.646;2022-08-30T05:37:09;11.80;;;6.03;;
5831;SDS011;50943;51.448;7.646;2022-08-30T05:39:36;15.07;;;6.77;;
5831;SDS011;50943;51.448;7.646;2022-08-30T05:42:03;13.27;;;6.70;;
5831;SDS011;50943;51.448;7.646;2022-08-30T05:44:30;10.60;;;6.43;;
5831;SDS011;50943;51.448;7.646;2022-08-30T05:46:56;12.87;;;6.43;;
5831;SDS011;50943;51.448;7.646;2022-08-30T05:49:23;9.60;;;5.50;;
5831;SDS011;50943;51.448;7.646;2022-08-30T05:51:49;13.03;;;6.43;;
5831;SDS011;50943;51.448;7.646;2022-08-30T05:54:15;10.20;;;6.00;;
5831;SDS011;50943;51.448;7.646;2022-08-30T05:56:42;12.10;;;6.10;;
5831;SDS011;50943;51.448;7.646;2022-08-30T05:59:11;10.90;;;5.90;;
5831;SDS011;50943;51.448;7.646;2022-08-30T06:01:39;8.30;;;4.43;;
5831;SDS011;50943;51.448;7.646;2022-08-30T06:04:07;10.50;;;5.60;;
5831;SDS011;50943;51.448;7.646;2022-08-30T06:06:35;9.90;;;5.83;;
5831;SDS011;50943;51.448;7.646;2022-08-30T06:09:02;8.40;;;5.57;;
5831;SDS011;50943;51.448;7.646;2022-08-30T06:11:28;9.23;;;5.60;;
5831;SDS011;50943;51.448;7.646;2022-08-30T06:13:55;12.50;;;5.30;;
5831;SDS011;50943;51.448;7.646;2022-08-30T06:16:24;7.03;;;5.10;;
5831;SDS011;50943;51.448;7.646;2022-08-30T06:18:51;9.07;;;5.23;;
5831;SDS011;50943;51.448;7.646;2022-08-30T06:21:17;7.40;;;4.67;;
5831;SDS011;50943;51.448;7.646;2022-08-30T06:23:44;9.43;;;5.77;;
5831;SDS011;50943;51.448;7.646;2022-08-30T06:26:11;15.07;;;5.80;;
5831;SDS011;50943;51.448;7.646;2022-08-30T06:28:37;10.60;;;6.20;;
5831;SDS011;50943;51.448;7.646;2022-08-30T06:31:04;9.00;;;5.97;;
5831;SDS011;50943;51.448;7.646;2022-08-30T06:33:32;12.97;;;5.17;;
5831;SDS011;50943;51.448;7.646;2022-08-30T06:36:00;6.57;;;5.40;;
5831;SDS011;50943;51.448;7.646;2022-08-30T06:38:27;13.00;;;5.70;;
5831;SDS011;50943;51.448;7.646;2022-08-30T06:40:53;14.77;;;5.53;;
5831;SDS011;50943;51.448;7.646;2022-08-30T06:43:20;9.07;;;4.73;;
5831;SDS011;50943;51.448;7.646;2022-08-30T06:45:47;8.43;;;5.03;;
5831;SDS011;50943;51.448;7.646;2022-08-30T06:48:13;8.40;;;5.80;;
5831;SDS011;50943;51.448;7.646;2022-08-30T06:50:41;8.83;;;4.80;;
5831;SDS011;50943;51.448;7.646;2022-08-30T06:53:09;8.43;;;5.00;;
5831;SDS011;50943;51.448;7.646;2022-08-30T06:55:35;7.07;;;4.90;;
5831;SDS011;50943;51.448;7.646;2022-08-30T06:58:02;7.83;;;5.10;;
5831;SDS011;50943;51.448;7.646;2022-08-30T07:00:28;7.40;;;5.10;;
5831;SDS011;50943;51.448;7.646;2022-08-30T07:02:55;12.57;;;4.87;;
5831;SDS011;50943;51.448;7.646;2022-08-30T07:05:22;7.30;;;4.83;;
5831;SDS011;50943;51.448;7.646;2022-08-30T07:07:50;9.43;;;4.83;;
5831;SDS011;50943;51.448;7.646;2022-08-30T07:10:18;6.07;;;4.30;;
5831;SDS011;50943;51.448;7.646;2022-08-30T07:12:45;7.27;;;4.87;;
5831;SDS011;50943;51.448;7.646;2022-08-30T07:15:12;6.70;;;4.40;;
5831;SDS011;50943;51.448;7.646;2022-08-30T07:17:38;6.80;;;4.63;;
5831;SDS011;50943;51.448;7.646;2022-08-30T07:20:22;15.50;;;4.80;;
5831;SDS011;50943;51.448;7.646;2022-08-30T07:22:50;11.60;;;5.10;;
5831;SDS011;50943;51.448;7.646;2022-08-30T07:25:17;6.03;;;4.93;;
5831;SDS011;50943;51.448;7.646;2022-08-30T07:27:43;6.20;;;4.47;;
5831;SDS011;50943;51.448;7.646;2022-08-30T07:30:10;5.93;;;4.20;;
5831;SDS011;50943;51.448;7.646;2022-08-30T07:32:37;9.13;;;4.53;;
5831;SDS011;50943;51.448;7.646;2022-08-30T07:35:04;5.07;;;4.33;;
5831;SDS011;50943;51.448;7.646;2022-08-30T07:37:30;6.00;;;4.30;;
5831;SDS011;50943;51.448;7.646;2022-08-30T07:39:58;9.60;;;4.30;;
5831;SDS011;50943;51.448;7.646;2022-08-30T07:42:25;7.90;;;4.70;;
5831;SDS011;50943;51.448;7.646;2022-08-30T07:44:51;8.30;;;4.67;;
5831;SDS011;50943;51.448;7.646;2022-08-30T07:47:17;5.90;;;4.40;;
5831;SDS011;50943;51.448;7.646;2022-08-30T07:49:44;6.47;;;4.13;;
5831;SDS011;50943;51.448;7.646;2022-08-30T07:52:11;4.70;;;3.10;;
5831;SDS011;50943;51.448;7.646;2022-08-30T07:54:37;6.43;;;3.83;;
5831;SDS011;50943;51.448;7.646;2022-08-30T07:57:05;9.40;;;4.10;;
5831;SDS011;50943;51.448;7.646;2022-08-30T07:59:32;5.37;;;4.57;;
5831;SDS011;50943;51.448;7.646;2022-08-30T08:01:58;6.97;;;3.70;;
5831;SDS011;50943;51.448;7.646;2022-08-30T08:04:25;5.80;;;3.93;;
5831;SDS011;50943;51.448;7.646;2022-08-30T08:06:51;5.10;;;3.70;;
5831;SDS011;50943;51.448;7.646;2022-08-30T08:09:18;7.53;;;4.57;;
5831;SDS011;50943;51.448;7.646;2022-08-30T08:11:45;7.40;;;4.17;;
5831;SDS011;50943;51.448;7.646;2022-08-30T08:14:13;6.73;;;4.33;;
5831;SDS011;50943;51.448;7.646;2022-08-30T08:16:39;6.27;;;4.17;;
5831;SDS011;50943;51.448;7.646;2022-08-30T08:19:09;4.77;;;3.90;;
5831;SDS011;50943;51.448;7.646;2022-08-30T08:21:36;5.47;;;4.37;;
5831;SDS011;50943;51.448;7.646;2022-08-30T08:24:02;13.23;;;4.23;;
5831;SDS011;50943;51.448;7.646;2022-08-30T08:26:29;5.93;;;3.30;;
5831;SDS011;50943;51.448;7.646;2022-08-30T08:28:56;8.50;;;3.90;;
5831;SDS011;50943;51.448;7.646;2022-08-30T08:31:24;7.03;;;3.47;;
5831;SDS011;50943;51.448;7.646;2022-08-30T08:33:51;5.13;;;3.43;;
5831;SDS011;50943;51.448;7.646;2022-08-30T08:36:17;9.07;;;3.17;;
5831;SDS011;50943;51.448;7.646;2022-08-30T08:38:44;7.33;;;3.70;;
5831;SDS011;50943;51.448;7.646;2022-08-30T08:41:12;5.87;;;3.40;;
5831;SDS011;50943;51.448;7.646;2022-08-30T08:43:41;7.13;;;3.33;;
5831;SDS011;50943;51.448;7.646;2022-08-30T08:46:09;10.07;;;3.60;;
5831;SDS011;50943;51.448;7.646;2022-08-30T08:48:40;5.30;;;3.03;;
5831;SDS011;50943;51.448;7.646;2022-08-30T08:51:08;6.60;;;3.10;;
5831;SDS011;50943;51.448;7.646;2022-08-30T08:53:54;8.97;;;3.80;;
5831;SDS011;50943;51.448;7.646;2022-08-30T08:56:23;10.03;;;3.10;;
5831;SDS011;50943;51.448;7.646;2022-08-30T08:58:50;6.90;;;3.17;;
5831;SDS011;50943;51.448;7.646;2022-08-30T09:01:18;7.17;;;2.80;;
5831;SDS011;50943;51.448;7.646;2022-08-30T09:03:46;8.23;;;3.60;;
5831;SDS011;50943;51.448;7.646;2022-08-30T09:06:22;5.17;;;3.07;;
5831;SDS011;50943;51.448;7.646;2022-08-30T09:08:50;6.43;;;3.20;;
5831;SDS011;50943;51.448;7.646;2022-08-30T09:11:31;6.80;;;2.90;;
5831;SDS011;50943;51.448;7.646;2022-08-30T09:13:58;4.30;;;2.40;;
5831;SDS011;50943;51.448;7.646;2022-08-30T09:19:11;6.00;;;2.93;;
5831;SDS011;50943;51.448;7.646;2022-08-30T09:21:37;4.57;;;2.93;;
5831;SDS011;50943;51.448;7.646;2022-08-30T09:24:04;5.83;;;2.90;;
5831;SDS011;50943;51.448;7.646;2022-08-30T09:26:33;7.33;;;3.10;;
5831;SDS011;50943;51.448;7.646;2022-08-30T09:29:00;3.73;;;2.60;;
5831;SDS011;50943;51.448;7.646;2022-08-30T09:31:30;8.97;;;3.60;;
5831;SDS011;50943;51.448;7.646;2022-08-30T09:33:58;3.90;;;2.50;;
5831;SDS011;50943;51.448;7.646;2022-08-30T09:36:30;4.70;;;2.67;;
5831;SDS011;50943;51.448;7.646;2022-08-30T09:38:59;5.70;;;3.10;;
5831;SDS011;50943;51.448;7.646;2022-08-30T09:41:27;5.90;;;2.90;;
5831;SDS011;50943;51.448;7.646;2022-08-30T09:44:02;5.67;;;2.60;;
5831;SDS011;50943;51.448;7.646;2022-08-30T09:46:29;7.83;;;2.80;;
5831;SDS011;50943;51.448;7.646;2022-08-30T09:48:56;12.20;;;3.30;;
5831;SDS011;50943;51.448;7.646;2022-08-30T09:51:41;6.90;;;2.83;;
5831;SDS011;50943;51.448;7.646;2022-08-30T09:54:11;5.53;;;2.73;;
5831;SDS011;50943;51.448;7.646;2022-08-30T09:56:42;7.13;;;2.97;;
5831;SDS011;50943;51.448;7.646;2022-08-30T09:59:13;5.17;;;2.90;;
5831;SDS011;50943;51.448;7.646;2022-08-30T10:01:42;5.30;;;2.70;;
5831;SDS011;50943;51.448;7.646;2022-08-30T10:04:13;4.27;;;2.57;;
5831;SDS011;50943;51.448;7.646;2022-08-30T10:06:45;8.30;;;2.73;;
5831;SDS011;50943;51.448;7.646;2022-08-30T10:09:18;6.73;;;2.40;;
5831;SDS011;50943;51.448;7.646;2022-08-30T10:11:48;3.40;;;2.47;;
5831;SDS011;50943;51.448;7.646;2022-08-30T10:14:38;5.73;;;3.37;;
5831;SDS011;50943;51.448;7.646;2022-08-30T10:17:07;5.33;;;2.47;;
5831;SDS011;50943;51.448;7.646;2022-08-30T10:19:38;4.53;;;2.43;;
5831;SDS011;50943;51.448;7.646;2022-08-30T10:22:10;5.10;;;2.37;;
5831;SDS011;50943;51.448;7.646;2022-08-30T10:24:38;7.47;;;2.60;;
5831;SDS011;50943;51.448;7.646;2022-08-30T10:27:06;6.87;;;2.60;;
5831;SDS011;50943;51.448;7.646;2022-08-30T10:29:35;6.60;;;2.50;;
5831;SDS011;50943;51.448;7.646;2022-08-30T10:32:05;4.93;;;2.70;;
5831;SDS011;50943;51.448;7.646;2022-08-30T10:34:36;4.00;;;2.03;;
5831;SDS011;50943;51.448;7.646;2022-08-30T10:37:06;4.80;;;2.23;;
5831;SDS011;50943;51.448;7.646;2022-08-30T10:39:36;4.20;;;2.40;;
5831;SDS011;50943;51.448;7.646;2022-08-30T10:42:05;7.23;;;2.60;;
5831;SDS011;50943;51.448;7.646;2022-08-30T10:44:34;3.30;;;2.50;;
5831;SDS011;50943;51.448;7.646;2022-08-30T10:47:05;7.93;;;2.90;;
5831;SDS011;50943;51.448;7.646;2022-08-30T10:49:34;11.80;;;2.30;;
5831;SDS011;50943;51.448;7.646;2022-08-30T10:52:06;3.93;;;2.23;;
5831;SDS011;50943;51.448;7.646;2022-08-30T10:54:35;10.60;;;2.90;;
5831;SDS011;50943;51.448;7.646;2022-08-30T10:57:05;4.40;;;2.10;;
5831;SDS011;50943;51.448;7.646;2022-08-30T10:59:31;5.03;;;2.60;;
5831;SDS011;50943;51.448;7.646;2022-08-30T11:04:47;12.13;;;2.70;;
5831;SDS011;50943;51.448;7.646;2022-08-30T11:07:22;3.53;;;2.17;;
5831;SDS011;50943;51.448;7.646;2022-08-30T11:09:57;6.50;;;2.60;;
5831;SDS011;50943;51.448;7.646;2022-08-30T11:12:34;6.07;;;3.10;;
5831;SDS011;50943;51.448;7.646;2022-08-30T11:15:10;6.80;;;3.10;;
5831;SDS011;50943;51.448;7.646;2022-08-30T11:17:39;8.47;;;2.80;;
5831;SDS011;50943;51.448;7.646;2022-08-30T11:20:19;5.07;;;2.60;;
5831;SDS011;50943;51.448;7.646;2022-08-30T11:28:10;3.30;;;2.10;;
5831;SDS011;50943;51.448;7.646;2022-08-30T11:30:50;3.60;;;1.90;;
5831;SDS011;50943;51.448;7.646;2022-08-30T11:33:26;7.73;;;2.53;;
5831;SDS011;50943;51.448;7.646;2022-08-30T11:35:53;5.10;;;2.37;;
5831;SDS011;50943;51.448;7.646;2022-08-30T11:41:05;4.23;;;2.40;;
5831;SDS011;50943;51.448;7.646;2022-08-30T11:46:35;3.20;;;1.90;;
5831;SDS011;50943;51.448;7.646;2022-08-30T11:49:04;4.87;;;2.10;;
5831;SDS011;50943;51.448;7.646;2022-08-30T11:51:50;9.30;;;2.43;;
5831;SDS011;50943;51.448;7.646;2022-08-30T11:54:22;4.83;;;2.50;;
5831;SDS011;50943;51.448;7.646;2022-08-30T11:56:52;4.00;;;2.30;;
5831;SDS011;50943;51.448;7.646;2022-08-30T11:59:24;3.70;;;2.50;;
5831;SDS011;50943;51.448;7.646;2022-08-30T12:01:55;9.73;;;2.40;;
5831;SDS011;50943;51.448;7.646;2022-08-30T12:04:25;4.00;;;2.40;;
5831;SDS011;50943;51.448;7.646;2022-08-30T12:06:53;4.13;;;2.30;;
5831;SDS011;50943;51.448;7.646;2022-08-30T12:12:06;3.83;;;2.30;;
5831;SDS011;50943;51.448;7.646;2022-08-30T12:14:41;7.90;;;2.30;;
5831;SDS011;50943;51.448;7.646;2022-08-30T12:17:26;5.17;;;2.70;;
5831;SDS011;50943;51.448;7.646;2022-08-30T12:20:14;5.63;;;2.97;;
5831;SDS011;50943;51.448;7.646;2022-08-30T12:22:41;3.50;;;2.30;;
5831;SDS011;50943;51.448;7.646;2022-08-30T12:25:12;4.50;;;2.23;;
5831;SDS011;50943;51.448;7.646;2022-08-30T12:27:39;5.10;;;2.50;;
5831;SDS011;50943;51.448;7.646;2022-08-30T12:30:06;8.33;;;2.53;;
5831;SDS011;50943;51.448;7.646;2022-08-30T12:32:40;6.30;;;2.30;;
5831;SDS011;50943;51.448;7.646;2022-08-30T12:35:15;4.73;;;2.20;;
5831;SDS011;50943;51.448;7.646;2022-08-30T12:37:42;6.13;;;2.37;;
5831;SDS011;50943;51.448;7.646;2022-08-30T12:40:11;4.77;;;2.23;;
5831;SDS011;50943;51.448;7.646;2022-08-30T12:42:39;3.97;;;2.20;;
5831;SDS011;50943;51.448;7.646;2022-08-30T12:45:09;4.93;;;2.10;;
5831;SDS011;50943;51.448;7.646;2022-08-30T12:47:39;4.20;;;2.60;;
5831;SDS011;50943;51.448;7.646;2022-08-30T12:50:07;3.30;;;2.60;;
5831;SDS011;50943;51.448;7.646;2022-08-30T12:52:35;4.20;;;2.53;;
5831;SDS011;50943;51.448;7.646;2022-08-30T12:55:09;4.30;;;2.70;;
5831;SDS011;50943;51.448;7.646;2022-08-30T12:57:37;4.60;;;2.20;;
5831;SDS011;50943;51.448;7.646;2022-08-30T13:00:04;3.83;;;2.50;;
5831;SDS011;50943;51.448;7.646;2022-08-30T13:02:42;5.57;;;2.20;;
5831;SDS011;50943;51.448;7.646;2022-08-30T13:07:50;5.80;;;2.40;;
5831;SDS011;50943;51.448;7.646;2022-08-30T13:10:16;9.13;;;2.30;;
5831;SDS011;50943;51.448;7.646;2022-08-30T13:12:57;3.70;;;2.30;;
5831;SDS011;50943;51.448;7.646;2022-08-30T13:15:27;6.77;;;2.20;;
5831;SDS011;50943;51.448;7.646;2022-08-30T13:20:36;5.90;;;2.20;;
5831;SDS011;50943;51.448;7.646;2022-08-30T13:23:04;4.80;;;2.43;;
5831;SDS011;50943;51.448;7.646;2022-08-30T13:25:30;3.80;;;2.73;;
5831;SDS011;50943;51.448;7.646;2022-08-30T13:27:58;8.03;;;2.30;;
5831;SDS011;50943;51.448;7.646;2022-08-30T13:30:24;5.80;;;2.00;;
5831;SDS011;50943;51.448;7.646;2022-08-30T13:32:50;6.87;;;2.27;;
5831;SDS011;50943;51.448;7.646;2022-08-30T13:35:17;6.63;;;2.47;;
5831;SDS011;50943;51.448;7.646;2022-08-30T13:37:45;6.10;;;1.90;;
5831;SDS011;50943;51.448;7.646;2022-08-30T13:40:12;4.20;;;2.23;;
5831;SDS011;50943;51.448;7.646;2022-08-30T13:42:39;3.43;;;1.97;;
5831;SDS011;50943;51.448;7.646;2022-08-30T13:45:07;4.30;;;2.13;;
5831;SDS011;50943;51.448;7.646;2022-08-30T13:47:34;3.23;;;2.40;;
5831;SDS011;50943;51.448;7.646;2022-08-30T13:50:00;3.70;;;2.17;;
5831;SDS011;50943;51.448;7.646;2022-08-30T13:52:27;6.83;;;2.10;;
5831;SDS011;50943;51.448;7.646;2022-08-30T13:54:55;5.67;;;1.93;;
5831;SDS011;50943;51.448;7.646;2022-08-30T13:57:23;4.10;;;2.30;;
5831;SDS011;50943;51.448;7.646;2022-08-30T13:59:49;3.30;;;1.93;;
5831;SDS011;50943;51.448;7.646;2022-08-30T14:02:16;3.43;;;2.27;;
5831;SDS011;50943;51.448;7.646;2022-08-30T14:04:42;3.90;;;1.97;;
5831;SDS011;50943;51.448;7.646;2022-08-30T14:07:09;2.50;;;1.90;;
5831;SDS011;50943;51.448;7.646;2022-08-30T14:09:35;5.63;;;2.20;;
5831;SDS011;50943;51.448;7.646;2022-08-30T14:12:04;3.20;;;2.00;;
5831;SDS011;50943;51.448;7.646;2022-08-30T14:14:30;4.13;;;2.20;;
5831;SDS011;50943;51.448;7.646;2022-08-30T14:16:57;4.03;;;1.60;;
5831;SDS011;50943;51.448;7.646;2022-08-30T14:19:23;8.80;;;2.23;;
5831;SDS011;50943;51.448;7.646;2022-08-30T14:21:50;2.40;;;2.00;;
5831;SDS011;50943;51.448;7.646;2022-08-30T14:24:16;3.57;;;2.20;;
5831;SDS011;50943;51.448;7.646;2022-08-30T14:26:44;3.20;;;2.10;;
5831;SDS011;50943;51.448;7.646;2022-08-30T14:29:13;3.30;;;2.00;;
5831;SDS011;50943;51.448;7.646;2022-08-30T14:31:40;2.57;;;2.10;;
5831;SDS011;50943;51.448;7.646;2022-08-30T14:34:07;5.40;;;2.10;;
5831;SDS011;50943;51.448;7.646;2022-08-30T14:36:35;3.83;;;1.77;;
5831;SDS011;50943;51.448;7.646;2022-08-30T14:39:02;4.43;;;2.30;;
5831;SDS011;50943;51.448;7.646;2022-08-30T14:41:30;3.10;;;2.00;;
5831;SDS011;50943;51.448;7.646;2022-08-30T14:43:56;3.57;;;1.90;;
5831;SDS011;50943;51.448;7.646;2022-08-30T14:46:24;6.10;;;2.30;;
5831;SDS011;50943;51.448;7.646;2022-08-30T14:48:51;5.70;;;2.17;;
5831;SDS011;50943;51.448;7.646;2022-08-30T14:51:18;7.57;;;2.30;;
5831;SDS011;50943;51.448;7.646;2022-08-30T14:53:45;2.40;;;1.87;;
5831;SDS011;50943;51.448;7.646;2022-08-30T14:56:13;3.50;;;2.27;;
5831;SDS011;50943;51.448;7.646;2022-08-30T14:58:40;9.17;;;1.83;;
5831;SDS011;50943;51.448;7.646;2022-08-30T15:01:06;6.90;;;2.00;;
5831;SDS011;50943;51.448;7.646;2022-08-30T15:03:35;9.53;;;2.10;;
5831;SDS011;50943;51.448;7.646;2022-08-30T15:06:01;3.57;;;2.27;;
5831;SDS011;50943;51.448;7.646;2022-08-30T15:08:28;2.30;;;2.00;;
5831;SDS011;50943;51.448;7.646;2022-08-30T15:10:54;4.50;;;2.00;;
5831;SDS011;50943;51.448;7.646;2022-08-30T15:13:21;4.20;;;2.20;;
5831;SDS011;50943;51.448;7.646;2022-08-30T15:15:47;2.70;;;2.23;;
5831;SDS011;50943;51.448;7.646;2022-08-30T15:18:14;4.10;;;2.60;;
5831;SDS011;50943;51.448;7.646;2022-08-30T15:20:44;5.20;;;2.00;;
5831;SDS011;50943;51.448;7.646;2022-08-30T15:23:11;3.40;;;2.10;;
5831;SDS011;50943;51.448;7.646;2022-08-30T15:25:38;3.00;;;2.00;;
5831;SDS011;50943;51.448;7.646;2022-08-30T15:28:04;5.97;;;2.20;;